createdAt,value
2018-06-01T00:02:10.097Z,100886
2018-06-01T00:07:01.642Z,100891
2018-06-01T00:11:53.152Z,100900
2018-06-01T00:16:44.678Z,100899
2018-06-01T00:21:36.205Z,100900
2018-06-01T00:26:27.732Z,100899
2018-06-01T00:31:19.245Z,100894
2018-06-01T00:36:10.780Z,100883
2018-06-01T00:41:02.305Z,100885
2018-06-01T00:45:54.585Z,100882
2018-06-01T00:50:46.123Z,100880
2018-06-01T00:55:37.644Z,100883
2018-06-01T01:00:29.173Z,100874
2018-06-01T01:05:20.727Z,100871
2018-06-01T01:10:12.260Z,100879
2018-06-01T01:15:03.810Z,100886
2018-06-01T01:19:55.336Z,100881
2018-06-01T01:24:46.875Z,100890
2018-06-01T01:29:38.438Z,100906
2018-06-01T01:34:29.954Z,100920
2018-06-01T01:39:21.477Z,100923
2018-06-01T01:44:12.979Z,100931
2018-06-01T01:49:04.488Z,100908
2018-06-01T01:53:56.735Z,100896
2018-06-01T01:58:48.263Z,100886
2018-06-01T02:03:39.764Z,100882
2018-06-01T02:08:32.040Z,100874
2018-06-01T02:13:23.604Z,100874
2018-06-01T02:18:15.816Z,100863
2018-06-01T02:23:07.348Z,100855
2018-06-01T02:27:58.872Z,100863
2018-06-01T02:32:50.414Z,100859
2018-06-01T02:37:41.929Z,100859
2018-06-01T02:42:33.470Z,100850
2018-06-01T02:47:24.985Z,100807
2018-06-01T02:52:16.505Z,100798
2018-06-01T02:57:08.001Z,100815
2018-06-01T03:01:59.542Z,100837
2018-06-01T03:07:17.208Z,100850
2018-06-01T03:12:09.457Z,100866
2018-06-01T03:17:01.713Z,100883
2018-06-01T03:21:53.973Z,100891
2018-06-01T03:26:45.522Z,100894
2018-06-01T03:31:37.019Z,100946
2018-06-01T03:36:29.282Z,100992
2018-06-01T03:41:21.542Z,101015
2018-06-01T03:46:13.028Z,101022
2018-06-01T03:51:05.543Z,101014
2018-06-01T03:55:57.715Z,101027
2018-06-01T04:00:49.584Z,101019
2018-06-01T04:05:41.116Z,100989
2018-06-01T04:10:32.606Z,100998
2018-06-01T04:15:24.116Z,101009
2018-06-01T04:20:17.267Z,101004
2018-06-01T04:25:08.777Z,100992
2018-06-01T04:30:00.266Z,101000
2018-06-01T04:34:52.487Z,100999
2018-06-01T04:39:43.989Z,100997
2018-06-01T04:44:35.511Z,100995
2018-06-01T04:49:27.020Z,101001
2018-06-01T04:54:18.524Z,101005
2018-06-01T04:59:11.493Z,101005
2018-06-01T05:04:04.742Z,100977
2018-06-01T05:08:56.283Z,100975
2018-06-01T05:13:48.642Z,100973
2018-06-01T05:18:40.162Z,100973
2018-06-01T05:23:31.660Z,100963
2018-06-01T05:28:23.142Z,100958
2018-06-01T05:33:14.633Z,100952
2018-06-01T05:38:06.155Z,100947
2018-06-01T05:42:57.687Z,100940
2018-06-01T05:47:49.219Z,100939
2018-06-01T05:52:40.725Z,100948
2018-06-01T05:57:32.220Z,100942
2018-06-01T06:02:23.746Z,100946
2018-06-01T06:07:15.274Z,100948
2018-06-01T06:12:06.764Z,100958
2018-06-01T06:16:59.019Z,100957
2018-06-01T06:21:51.289Z,100965
2018-06-01T06:26:42.814Z,100952
2018-06-01T06:31:35.150Z,100954
2018-06-01T06:36:26.704Z,100967
2018-06-01T06:41:19.020Z,100973
2018-06-01T06:46:10.556Z,100975
2018-06-01T06:51:02.087Z,100969
2018-06-01T06:55:53.621Z,100978
2018-06-01T07:00:45.899Z,100979
2018-06-01T07:05:38.154Z,100982
2018-06-01T07:10:30.376Z,100989
2018-06-01T07:15:21.907Z,100992
2018-06-01T07:20:14.180Z,101001
2018-06-01T07:25:06.432Z,100997
2018-06-01T07:29:58.755Z,101003
2018-06-01T07:34:50.254Z,101000
2018-06-01T07:39:42.268Z,101010
2018-06-01T07:44:34.510Z,101010
2018-06-01T07:49:26.056Z,101013
2018-06-01T07:54:18.307Z,101016
2018-06-01T07:59:10.572Z,101007
2018-06-01T08:04:02.817Z,101011
2018-06-01T08:08:55.093Z,101027
2018-06-01T08:13:46.583Z,101031
2018-06-01T08:18:38.133Z,101034
2018-06-01T08:23:30.406Z,101021
2018-06-01T08:28:21.929Z,101026
2018-06-01T08:33:13.435Z,101026
2018-06-01T08:38:04.950Z,101025
2018-06-01T08:42:56.449Z,101028
2018-06-01T08:47:47.953Z,101032
2018-06-01T08:52:40.253Z,101031
2018-06-01T08:57:31.792Z,101041
2018-06-01T09:02:23.337Z,101043
2018-06-01T09:07:14.869Z,101048
2018-06-01T09:12:06.400Z,101060
2018-06-01T09:16:57.936Z,101062
2018-06-01T09:21:49.464Z,101058
2018-06-01T09:26:40.978Z,101065
2018-06-01T09:31:32.470Z,101071
2018-06-01T09:36:24.710Z,101081
2018-06-01T09:41:16.206Z,101073
2018-06-01T09:46:07.708Z,101076
2018-06-01T09:50:59.232Z,101076
2018-06-01T09:55:51.490Z,101079
2018-06-01T10:00:49.227Z,101073
2018-06-01T10:05:41.513Z,101072
2018-06-01T10:10:35.701Z,101075
2018-06-01T10:15:27.993Z,101077
2018-06-01T10:20:19.501Z,101083
2018-06-01T10:25:11.763Z,101081
2018-06-01T10:30:03.332Z,101081
2018-06-01T10:34:55.655Z,101082
2018-06-01T10:39:47.163Z,101089
2018-06-01T10:44:39.421Z,101095
2018-06-01T10:49:31.722Z,101097
2018-06-01T10:54:23.242Z,101094
2018-06-01T10:59:14.771Z,101100
2018-06-01T11:04:06.268Z,101098
2018-06-01T11:08:58.565Z,101104
2018-06-01T11:13:50.120Z,101100
2018-06-01T11:18:41.607Z,101103
2018-06-01T11:23:33.113Z,101111
2018-06-01T11:28:25.367Z,101114
2018-06-01T11:33:16.886Z,101117
2018-06-01T11:38:09.194Z,101114
2018-06-01T11:43:00.682Z,101117
2018-06-01T11:47:52.185Z,101114
2018-06-01T11:52:43.727Z,101120
2018-06-01T11:57:35.258Z,101120
2018-06-01T12:02:26.784Z,101117
2018-06-01T12:07:18.304Z,101108
2018-06-01T12:12:09.848Z,101111
2018-06-01T12:17:01.353Z,101113
2018-06-01T12:21:52.867Z,101110
2018-06-01T12:26:45.125Z,101108
2018-06-01T12:31:37.406Z,101117
2018-06-01T12:36:28.897Z,101120
2018-06-01T12:41:21.155Z,101125
2018-06-01T12:46:13.405Z,101115
2018-06-01T12:51:04.969Z,101123
2018-06-01T12:55:57.372Z,101122
2018-06-01T13:00:48.888Z,101122
2018-06-01T13:05:40.471Z,101126
2018-06-01T13:10:32.729Z,101129
2018-06-01T13:15:25.019Z,101130
2018-06-01T13:20:16.549Z,101125
2018-06-01T13:25:08.058Z,101129
2018-06-01T13:29:59.626Z,101121
2018-06-01T13:34:51.150Z,101115
2018-06-01T13:39:42.655Z,101119
2018-06-01T13:44:34.159Z,101118
2018-06-01T13:49:26.447Z,101123
2018-06-01T13:54:17.972Z,101121
2018-06-01T13:59:09.479Z,101128
2018-06-01T14:04:01.738Z,101136
2018-06-01T14:08:53.977Z,101127
2018-06-01T14:13:45.479Z,101134
2018-06-01T14:18:37.171Z,101131
2018-06-01T14:23:29.452Z,101119
2018-06-01T14:28:20.999Z,101124
2018-06-01T14:33:12.541Z,101124
2018-06-01T14:38:04.067Z,101132
2018-06-01T14:42:55.549Z,101125
2018-06-01T14:47:47.817Z,101126
2018-06-01T14:52:40.080Z,101136
2018-06-01T14:57:31.699Z,101134
2018-06-01T15:02:23.940Z,101132
2018-06-01T15:07:16.189Z,101137
2018-06-01T15:12:08.451Z,101138
2018-06-01T15:17:00.697Z,101138
2018-06-01T15:21:52.939Z,101139
2018-06-01T15:26:45.223Z,101146
2018-06-01T15:31:36.758Z,101145
2018-06-01T15:36:28.351Z,101153
2018-06-01T15:41:19.879Z,101158
2018-06-01T15:46:11.519Z,101160
2018-06-01T15:51:03.770Z,101160
2018-06-01T15:55:55.296Z,101165
2018-06-01T16:00:46.826Z,101168
2018-06-01T16:05:38.341Z,101175
2018-06-01T16:10:29.810Z,101177
2018-06-01T16:15:21.367Z,101177
2018-06-01T16:20:13.623Z,101180
2018-06-01T16:25:05.105Z,101180
2018-06-01T16:29:56.583Z,101185
2018-06-01T16:34:48.873Z,101189
2018-06-01T16:39:40.413Z,101188
2018-06-01T16:44:31.900Z,101191
2018-06-01T16:49:24.160Z,101185
2018-06-01T16:54:15.673Z,101184
2018-06-01T16:59:07.944Z,101184
2018-06-01T17:04:00.218Z,101190
2018-06-01T17:08:51.724Z,101198
2018-06-01T17:13:43.964Z,101201
2018-06-01T17:18:36.222Z,101212
2018-06-01T17:23:28.526Z,101208
2018-06-01T17:28:20.035Z,101218
2018-06-01T17:33:11.599Z,101218
2018-06-01T17:38:03.175Z,101222
2018-06-01T17:42:55.497Z,101228
2018-06-01T17:47:46.998Z,101236
2018-06-01T17:52:38.499Z,101243
2018-06-01T17:57:30.756Z,101243
2018-06-01T18:02:23.027Z,101246
2018-06-01T18:07:14.526Z,101250
2018-06-01T18:12:06.758Z,101257
2018-06-01T18:16:58.315Z,101255
2018-06-01T18:21:50.565Z,101258
2018-06-01T18:26:42.830Z,101261
2018-06-01T18:31:35.061Z,101257
2018-06-01T18:36:26.588Z,101253
2018-06-01T18:41:18.092Z,101255
2018-06-01T18:46:09.606Z,101252
2018-06-01T18:51:01.157Z,101260
2018-06-01T18:55:52.672Z,101268
2018-06-01T19:00:44.193Z,101260
2018-06-01T19:05:35.738Z,101259
2018-06-01T19:10:27.257Z,101265
2018-06-01T19:15:18.764Z,101267
2018-06-01T19:20:10.283Z,101264
2018-06-01T19:25:01.797Z,101265
2018-06-01T19:29:53.326Z,101264
2018-06-01T19:34:44.823Z,101265
2018-06-01T19:39:37.186Z,101266
2018-06-01T19:44:28.725Z,101270
2018-06-01T19:49:20.259Z,101271
2018-06-01T19:54:11.867Z,101277
2018-06-01T19:59:04.978Z,101277
2018-06-01T20:03:56.503Z,101284
2018-06-01T20:08:48.041Z,101295
2018-06-01T20:13:39.567Z,101303
2018-06-01T20:18:31.083Z,101303
2018-06-01T20:23:23.345Z,101304
2018-06-01T20:28:14.966Z,101301
2018-06-01T20:33:07.236Z,101297
2018-06-01T20:37:58.740Z,101298
2018-06-01T20:42:50.253Z,101305
2018-06-01T20:47:41.783Z,101305
2018-06-01T20:52:33.296Z,101302
2018-06-01T20:57:24.833Z,101302
2018-06-01T21:02:16.374Z,101305
2018-06-01T21:07:07.881Z,101308
2018-06-01T21:11:59.414Z,101303
2018-06-01T21:16:50.936Z,101311
2018-06-01T21:21:43.250Z,101317
2018-06-01T21:26:34.873Z,101316
2018-06-01T21:31:26.397Z,101324
2018-06-01T21:36:17.905Z,101325
2018-06-01T21:41:09.406Z,101325
2018-06-01T21:46:01.658Z,101332
2018-06-01T21:50:53.930Z,101327
2018-06-01T21:55:45.503Z,101322
2018-06-01T22:00:37.013Z,101327
2018-06-01T22:05:28.515Z,101330
2018-06-01T22:10:20.774Z,101338
2018-06-01T22:15:13.024Z,101345
2018-06-01T22:20:05.302Z,101342
2018-06-01T22:24:56.772Z,101342
2018-06-01T22:29:48.319Z,101347
2018-06-01T22:34:40.586Z,101345
2018-06-01T22:39:32.903Z,101348
2018-06-01T22:44:24.446Z,101343
2018-06-01T22:49:15.969Z,101347
2018-06-01T22:54:07.479Z,101346
2018-06-01T22:58:58.977Z,101339
2018-06-01T23:03:51.223Z,101340
2018-06-01T23:08:43.448Z,101342
2018-06-01T23:13:34.971Z,101340
2018-06-01T23:18:27.514Z,101340
2018-06-01T23:23:19.022Z,101334
2018-06-01T23:28:10.558Z,101334
2018-06-01T23:33:02.074Z,101327
2018-06-01T23:37:54.329Z,101316
2018-06-01T23:42:46.561Z,101316
2018-06-01T23:47:38.836Z,101313
2018-06-01T23:52:31.052Z,101312
2018-06-01T23:57:22.560Z,101306
